Time;durP1;ratioP1;P1;durP2;ratioP2;P2;SDS_P1;SDS_P2;PMS_P1;PMS_P2;Temp;Humidity;BMP_temperature;BMP_pressure;BME280_temperature;BME280_humidity;BME280_pressure;Samples;Min_cycle;Max_cycle;Signal;HPM_P1;HPM_P2
2022/12/20 00:00:22;;;;;;;;;;;2.00;87.20;;;-151.14;100.00;62537.16;5034055;28;20363;-85
2022/12/20 00:02:50;;;;;;;;;;;2.00;87.10;;;-151.14;100.00;62537.16;4999984;28;19927;-85
2022/12/20 00:05:18;;;;;;;;;;;2.00;87.20;;;-151.14;100.00;62537.16;5015544;28;19928;-85
2022/12/20 00:07:46;;;;;;;;;;;2.00;87.10;;;-151.14;100.00;62537.16;5016178;28;19921;-85
2022/12/20 00:10:14;;;;;;;;;;;2.00;87.30;;;-151.14;100.00;62537.16;5016467;28;19921;-84
2022/12/20 00:12:42;;;;;;;;;;;2.00;87.20;;;-151.14;100.00;62537.16;4999977;28;19927;-85
2022/12/20 00:15:11;;;;;;;;;;;2.00;87.20;;;-151.14;100.00;62537.16;5015655;28;19921;-85
2022/12/20 00:17:40;;;;;;;;;;;2.00;87.10;;;18.16;100.00;62537.16;4999708;28;19921;-85
2022/12/20 00:20:09;;;;;;;;;;;2.00;87.20;;;-151.14;100.00;62537.16;5016099;28;19922;-85
2022/12/20 00:22:37;;;;;;;;;;;2.00;87.20;;;-151.14;100.00;62537.16;4999793;28;20116;-85
2022/12/20 00:25:06;;;;;;;;;;;2.00;87.30;;;18.12;100.00;62537.16;5015529;28;20120;-85
2022/12/20 00:27:34;;;;;;;;;;;2.00;87.30;;;-151.14;100.00;62537.16;5016017;28;19921;-84
2022/12/20 00:30:02;;;;;;;;;;;2.00;87.20;;;-151.14;100.00;62537.16;4999682;28;20238;-85
2022/12/20 00:32:31;;;;;;;;;;;2.00;87.10;;;-151.14;100.00;62537.16;4999735;28;19943;-84
2022/12/20 00:34:59;;;;;;;;;;;2.00;87.20;;;-151.14;100.00;62537.16;5015330;28;19925;-84
2022/12/20 00:37:28;;;;;;;;;;;2.00;87.20;;;-151.14;100.00;62537.16;5016054;28;19928;-85
2022/12/20 00:39:55;;;;;;;;;;;2.00;87.20;;;-151.14;100.00;62537.16;5032388;28;20230;-84
2022/12/20 00:42:23;;;;;;;;;;;2.00;87.20;;;-151.14;100.00;62537.16;4999548;28;19921;-84
2022/12/20 00:44:51;;;;;;;;;;;1.90;87.10;;;-151.14;100.00;62537.16;5015195;28;20116;-85
2022/12/20 00:47:19;;;;;;;;;;;1.90;87.20;;;-151.14;100.00;62537.16;5015561;28;20231;-85
2022/12/20 00:49:49;;;;;;;;;;;1.90;87.20;;;-151.14;100.00;62537.16;5015351;28;19921;-85
2022/12/20 00:52:17;;;;;;;;;;;1.90;87.20;;;-151.14;100.00;62537.16;5015609;28;19921;-84
2022/12/20 00:54:44;;;;;;;;;;;1.90;87.40;;;-151.14;100.00;62537.16;5015062;28;19928;-85
2022/12/20 00:57:12;;;;;;;;;;;1.90;87.30;;;0.48;100.00;62537.16;5015631;28;20116;-85
2022/12/20 00:59:40;;;;;;;;;;;1.90;87.30;;;-151.14;100.00;62537.16;5015404;28;20234;-85
2022/12/20 01:02:08;;;;;;;;;;;1.90;87.40;;;-151.14;100.00;62537.16;5033140;28;19921;-84
2022/12/20 01:04:36;;;;;;;;;;;1.90;87.40;;;-151.14;100.00;62537.16;5015246;28;19921;-84
2022/12/20 01:07:06;;;;;;;;;;;1.90;87.30;;;-151.14;100.00;62537.16;5015018;28;19921;-84
2022/12/20 01:09:33;;;;;;;;;;;1.90;87.20;;;-151.14;100.00;62537.16;5015213;28;19921;-84
2022/12/20 01:12:02;;;;;;;;;;;1.90;87.20;;;-151.14;100.00;62537.16;5015292;28;19923;-84
2022/12/20 01:14:30;;;;;;;;;;;1.90;87.20;;;-151.14;100.00;62537.16;5015121;28;19928;-84
2022/12/20 01:16:58;;;;;;;;;;;1.90;87.20;;;-151.14;100.00;62537.16;4998565;28;19928;-84
2022/12/20 01:19:26;;;;;;;;;;;1.90;87.20;;;-151.14;100.00;62537.16;5014958;28;19927;-84
2022/12/20 01:21:54;;;;;;;;;;;1.90;87.30;;;-151.14;100.00;62537.16;4998998;28;19943;-85
2022/12/20 01:24:23;;;;;;;;;;;1.90;87.20;;;-151.14;100.00;62537.16;5014873;28;19921;-85
2022/12/20 01:26:51;;;;;;;;;;;1.90;87.30;;;18.10;100.00;62537.16;5014542;28;19922;-84
2022/12/20 01:29:19;;;;;;;;;;;1.90;87.40;;;-151.14;100.00;62537.16;5014944;28;19922;-85
2022/12/20 01:31:48;;;;;;;;;;;1.90;87.30;;;18.12;100.00;62537.16;5031456;28;19921;-84
2022/12/20 01:34:16;;;;;;;;;;;1.90;87.20;;;-151.14;100.00;62537.16;5031296;28;19921;-84
2022/12/20 01:36:44;;;;;;;;;;;1.90;87.30;;;-151.14;100.00;62537.16;4998314;28;19921;-85
2022/12/20 01:39:14;;;;;;;;;;;1.90;87.20;;;0.43;100.00;62537.16;5014844;28;19928;-85
2022/12/20 01:41:43;;;;;;;;;;;1.90;87.20;;;-151.14;100.00;62537.16;5014893;28;19921;-85
2022/12/20 01:44:44;;;;;;;;;;;1.80;87.20;;;-151.14;100.00;62537.16;5014455;28;19921;-84
2022/12/20 01:47:12;;;;;;;;;;;1.80;87.00;;;-151.14;100.00;62537.16;4995232;28;19922;-84
2022/12/20 01:49:43;;;;;;;;;;;1.80;87.20;;;-151.14;100.00;62537.16;4979021;28;20124;-85
2022/12/20 01:52:12;;;;;;;;;;;1.80;87.20;;;-151.14;100.00;62537.16;4995167;28;20133;-84
2022/12/20 01:54:41;;;;;;;;;;;1.80;87.20;;;-151.14;100.00;62537.16;5010970;28;19927;-85
2022/12/20 01:57:13;;;;;;;;;;;1.80;87.20;;;-151.14;100.00;62537.16;5011401;28;19943;-84
2022/12/20 01:59:41;;;;;;;;;;;1.80;87.20;;;-151.14;100.00;62537.16;4994636;28;19922;-84
2022/12/20 02:02:11;;;;;;;;;;;1.80;87.10;;;-151.14;100.00;62537.16;5010420;28;19922;-84
2022/12/20 02:04:39;;;;;;;;;;;1.80;87.20;;;0.38;100.00;62537.16;4994737;28;19921;-85
2022/12/20 02:07:07;;;;;;;;;;;1.80;87.20;;;-151.14;100.00;62537.16;5012318;28;20231;-85
2022/12/20 02:09:35;;;;;;;;;;;1.80;87.20;;;-151.14;100.00;62537.16;5014329;28;19928;-84
2022/12/20 02:12:08;;;;;;;;;;;1.80;87.10;;;-151.14;100.00;62537.16;5031981;28;20227;-84
2022/12/20 02:14:50;;;;;;;;;;;1.80;87.10;;;-151.14;100.00;62537.16;4997865;28;19925;-85
2022/12/20 02:17:21;;;;;;;;;;;1.80;87.20;;;-151.14;100.00;62537.16;5014229;28;19927;-84
2022/12/20 02:20:19;;;;;;;;;;;1.80;87.10;;;-151.14;100.00;62537.16;5014323;28;19921;-85
2022/12/20 02:22:57;;;;;;;;;;;1.80;87.20;;;-151.14;100.00;62537.16;4997745;28;19943;-84
2022/12/20 02:25:40;;;;;;;;;;;1.80;87.20;;;-151.14;100.00;62537.16;4997054;28;20094;-84
2022/12/20 02:28:11;;;;;;;;;;;1.80;87.20;;;-151.14;100.00;62537.16;4997750;28;19929;-84
2022/12/20 02:30:42;;;;;;;;;;;1.80;87.20;;;-151.14;100.00;62537.16;5014227;28;19921;-85
2022/12/20 02:33:11;;;;;;;;;;;1.80;87.10;;;0.34;100.00;62537.16;5014073;28;19921;-84
2022/12/20 02:35:40;;;;;;;;;;;1.80;87.20;;;0.34;100.00;62537.16;4997524;28;19932;-85
2022/12/20 02:38:25;;;;;;;;;;;1.80;87.30;;;-151.14;100.00;62537.16;5030517;28;19922;-84
2022/12/20 02:40:56;;;;;;;;;;;1.70;87.20;;;-151.14;100.00;62537.16;4997615;28;20348;-84
2022/12/20 02:46:14;;;;;;;;;;;1.70;87.10;;;-151.14;100.00;62537.16;5014089;23;19927;-78
2022/12/20 02:48:42;;;;;;;;;;;1.70;87.20;;;-151.14;100.00;62537.16;5026142;28;19927;-79
2022/12/20 02:51:10;;;;;;;;;;;1.70;87.20;;;-151.14;100.00;62537.16;5031317;28;19921;-79
2022/12/20 02:53:38;;;;;;;;;;;1.70;87.20;;;-151.14;100.00;62537.16;5033453;28;20211;-79
2022/12/20 02:56:09;;;;;;;;;;;1.70;87.10;;;-151.14;100.00;62537.16;5016936;28;19921;-80
2022/12/20 02:58:40;;;;;;;;;;;1.70;87.10;;;0.28;100.00;62537.16;5013990;28;20235;-79
2022/12/20 03:01:09;;;;;;;;;;;1.70;87.10;;;0.30;100.00;62537.16;5033300;28;19927;-79
2022/12/20 03:03:38;;;;;;;;;;;1.70;87.20;;;-151.14;100.00;62537.16;5016907;28;19927;-79
2022/12/20 03:06:07;;;;;;;;;;;1.70;87.20;;;-151.14;100.00;62537.16;5033512;28;20213;-79
2022/12/20 03:08:35;;;;;;;;;;;1.70;87.20;;;-151.14;100.00;62537.16;5033387;28;19920;-79
2022/12/20 03:11:03;;;;;;;;;;;1.70;87.10;;;-151.14;100.00;62537.16;5033457;28;20207;-79
2022/12/20 03:13:32;;;;;;;;;;;1.70;87.00;;;-151.14;100.00;62537.16;5035537;28;20261;-79
2022/12/20 03:16:05;;;;;;;;;;;1.70;87.10;;;-151.14;100.00;62537.16;5019425;28;19920;-79
2022/12/20 03:18:33;;;;;;;;;;;1.70;87.20;;;-151.14;100.00;62537.16;5036003;28;19920;-79
2022/12/20 03:21:02;;;;;;;;;;;1.70;87.10;;;-151.14;100.00;62537.16;5036853;28;19921;-79
2022/12/20 03:23:31;;;;;;;;;;;1.70;87.20;;;-151.14;100.00;62537.16;5036666;28;19927;-79
2022/12/20 03:25:59;;;;;;;;;;;1.70;87.10;;;-151.14;100.00;62537.16;5036661;28;19928;-79
2022/12/20 03:28:41;;;;;;;;;;;1.70;87.30;;;-151.14;100.00;62537.16;5036979;28;19921;-79
2022/12/20 03:31:12;;;;;;;;;;;1.70;87.10;;;-151.14;100.00;62537.16;5036898;28;19928;-79
2022/12/20 03:33:46;;;;;;;;;;;1.70;87.20;;;-151.14;100.00;62537.16;5019967;28;19927;-79
2022/12/20 03:36:16;;;;;;;;;;;1.70;87.20;;;-151.14;100.00;62537.16;5036386;28;19921;-79
2022/12/20 03:38:44;;;;;;;;;;;1.60;87.10;;;-151.14;100.00;62537.16;5020114;28;20223;-79
2022/12/20 03:41:13;;;;;;;;;;;1.70;87.20;;;-151.14;100.00;62537.16;5020206;28;20208;-79
2022/12/20 03:43:41;;;;;;;;;;;1.60;87.10;;;-151.14;100.00;62537.16;5036467;28;19921;-79
2022/12/20 03:46:09;;;;;;;;;;;1.60;87.10;;;-151.14;100.00;62537.16;5052835;28;19927;-79
2022/12/20 03:48:39;;;;;;;;;;;1.60;87.00;;;-151.14;100.00;62537.16;5020086;28;19921;-79
2022/12/20 03:51:10;;;;;;;;;;;1.60;87.00;;;18.10;100.00;62537.16;5034203;28;19921;-79
2022/12/20 03:53:40;;;;;;;;;;;1.60;87.10;;;-151.14;100.00;62537.16;5016611;28;19929;-79
2022/12/20 03:56:08;;;;;;;;;;;1.60;86.90;;;-151.14;100.00;62537.16;5000063;28;19921;-79
2022/12/20 03:58:38;;;;;;;;;;;1.60;87.00;;;-151.14;100.00;62537.16;5000177;28;19921;-79
2022/12/20 04:01:17;;;;;;;;;;;1.60;87.10;;;-151.14;100.00;62537.16;5016523;28;19922;-78
2022/12/20 04:03:46;;;;;;;;;;;1.60;87.10;;;18.10;100.00;62537.16;4999931;28;19928;-79
2022/12/20 04:06:14;;;;;;;;;;;1.60;87.20;;;-151.14;100.00;62537.16;5016298;28;19927;-79
2022/12/20 04:08:43;;;;;;;;;;;1.60;86.90;;;-151.14;100.00;62537.16;5000180;28;19927;-79
2022/12/20 04:11:16;;;;;;;;;;;1.60;87.10;;;-151.14;100.00;62537.16;5016436;28;19927;-79
2022/12/20 04:14:10;;;;;;;;;;;1.60;87.10;;;-151.14;100.00;62537.16;5013110;28;19921;-79
2022/12/20 04:16:38;;;;;;;;;;;1.60;87.10;;;-151.14;100.00;62537.16;5016073;28;19928;-79
2022/12/20 04:19:07;;;;;;;;;;;1.60;87.20;;;-151.14;100.00;62537.16;4999983;28;20230;-79
2022/12/20 04:21:40;;;;;;;;;;;1.60;87.10;;;-151.14;100.00;62537.16;4999853;28;19921;-79
2022/12/20 04:24:10;;;;;;;;;;;1.60;87.00;;;-151.14;100.00;62537.16;5032656;28;19944;-79
2022/12/20 04:26:44;;;;;;;;;;;1.60;87.00;;;0.14;100.00;81254.13;4999470;28;19925;-79
2022/12/20 04:29:13;;;;;;;;;;;1.60;87.10;;;-151.14;100.00;62537.16;5016005;28;19921;-79
2022/12/20 04:31:42;;;;;;;;;;;1.60;87.20;;;-151.14;100.00;62537.16;5016181;28;19928;-79
2022/12/20 04:34:10;;;;;;;;;;;1.60;87.10;;;-151.14;100.00;62537.16;5016028;28;19936;-79
2022/12/20 04:36:39;;;;;;;;;;;1.60;86.90;;;18.10;100.00;62537.16;5015849;28;19943;-79
2022/12/20 04:39:13;;;;;;;;;;;1.60;87.00;;;-151.14;100.00;62537.16;4999717;28;19929;-79
2022/12/20 04:42:01;;;;;;;;;;;1.60;87.00;;;-151.14;100.00;62537.16;4999661;28;19928;-79
2022/12/20 04:44:29;;;;;;;;;;;1.60;87.00;;;-151.14;100.00;62537.16;5015675;28;19925;-79
2022/12/20 04:46:57;;;;;;;;;;;1.60;87.10;;;-151.14;100.00;62537.16;5015482;28;19928;-79
2022/12/20 04:49:26;;;;;;;;;;;1.50;87.00;;;-151.14;100.00;62537.16;4999911;28;19921;-79
2022/12/20 04:51:54;;;;;;;;;;;1.50;87.10;;;-151.14;100.00;62537.16;5016021;28;19921;-79
2022/12/20 04:54:25;;;;;;;;;;;1.50;87.00;;;-151.14;100.00;62537.16;5015511;28;19921;-79
2022/12/20 04:57:00;;;;;;;;;;;1.50;87.10;;;-151.14;100.00;62537.16;5015604;28;19921;-79
2022/12/20 04:59:28;;;;;;;;;;;1.50;87.10;;;-151.14;100.00;62537.16;5015731;28;19927;-79
2022/12/20 05:01:56;;;;;;;;;;;1.50;87.10;;;-151.14;100.00;62537.16;5015757;28;19921;-79
2022/12/20 05:04:44;;;;;;;;;;;1.50;87.20;;;-151.14;100.00;62537.16;5015085;28;19927;-79
2022/12/20 05:07:12;;;;;;;;;;;1.50;87.00;;;-151.14;100.00;62537.16;5015405;28;20097;-79
2022/12/20 05:09:46;;;;;;;;;;;1.50;87.10;;;-151.14;100.00;62537.16;4999029;28;19925;-79
2022/12/20 05:12:14;;;;;;;;;;;1.50;87.00;;;-151.14;100.00;62537.16;4999237;28;19927;-79
2022/12/20 05:14:42;;;;;;;;;;;1.50;87.10;;;-151.14;100.00;62537.16;5015022;28;19929;-79
2022/12/20 05:17:12;;;;;;;;;;;1.50;87.10;;;-151.14;100.00;62537.16;5015455;28;19921;-79
2022/12/20 05:19:39;;;;;;;;;;;1.50;87.10;;;-151.14;100.00;62537.16;4998999;28;19932;-79
2022/12/20 05:28:02;;;;;;;;;;;1.50;87.10;;;-151.14;100.00;62537.16;5015045;28;19921;-79
2022/12/20 05:30:34;;;;;;;;;;;1.50;87.00;;;-151.14;100.00;62537.16;4998775;28;19921;-79
2022/12/20 05:33:02;;;;;;;;;;;1.50;87.20;;;-151.14;100.00;62537.16;5015347;28;19928;-79
2022/12/20 05:35:31;;;;;;;;;;;1.50;87.20;;;-151.14;100.00;62537.16;5014741;28;19922;-79
2022/12/20 05:38:05;;;;;;;;;;;1.50;87.20;;;-151.14;100.00;62537.16;5015043;28;19945;-79
2022/12/20 05:40:35;;;;;;;;;;;1.50;87.10;;;-151.14;100.00;62537.16;5015087;28;19921;-79
2022/12/20 05:43:03;;;;;;;;;;;1.50;87.10;;;-151.14;100.00;62537.16;5015079;28;20345;-79
2022/12/20 05:45:38;;;;;;;;;;;1.50;87.10;;;-151.14;100.00;62537.16;4998257;28;19927;-79
2022/12/20 05:48:14;;;;;;;;;;;1.50;87.00;;;18.10;100.00;62537.16;5014906;28;19928;-79
2022/12/20 05:50:44;;;;;;;;;;;1.50;87.00;;;-151.14;100.00;62537.16;4998408;28;19921;-79
2022/12/20 05:53:30;;;;;;;;;;;1.50;87.10;;;-151.14;100.00;62537.16;5014893;28;20433;-79
2022/12/20 05:56:03;;;;;;;;;;;1.50;87.10;;;-151.14;100.00;62537.16;5014591;28;19927;-79
2022/12/20 06:02:07;;;;;;;;;;;1.40;86.90;;;-151.14;100.00;62537.16;4939271;28;19922;-79
2022/12/20 06:08:22;;;;;;;;;;;1.40;86.80;;;-151.14;100.00;62537.16;4999586;28;19944;-79
2022/12/20 06:10:51;;;;;;;;;;;1.50;87.70;;;-151.14;100.00;62537.16;4998337;28;20105;-79
2022/12/20 06:13:22;;;;;;;;;;;1.40;86.80;;;18.12;100.00;62537.16;4997935;28;19921;-79
2022/12/20 06:15:52;;;;;;;;;;;1.50;87.00;;;-151.14;100.00;62537.16;5014314;28;20135;-79
2022/12/20 06:19:02;;;;;;;;;;;;;;;;;;;;;
2022/12/20 06:21:32;;;;;;;;;;;1.50;86.80;;;-151.14;100.00;62537.16;4997810;28;20212;-79
2022/12/20 06:24:01;;;;;;;;;;;1.50;86.50;;;-151.14;100.00;62537.16;5014257;28;19945;-79
2022/12/20 06:26:35;;;;;;;;;;;1.60;86.40;;;-151.14;100.00;62537.16;4997711;28;19931;-79
2022/12/20 06:29:08;;;;;;;;;;;1.60;86.20;;;-151.14;100.00;62537.16;5014617;28;19921;-79
2022/12/20 06:31:40;;;;;;;;;;;1.60;86.20;;;-151.14;100.00;62537.16;4997882;28;19928;-79
2022/12/20 06:34:08;;;;;;;;;;;1.60;86.20;;;-151.14;100.00;62537.16;5014092;28;19925;-79
2022/12/20 06:36:40;;;;;;;;;;;1.70;86.10;;;-151.14;100.00;62537.16;5013889;28;19921;-79
2022/12/20 06:39:11;;;;;;;;;;;1.70;86.00;;;-151.14;100.00;62537.16;5014473;28;19927;-79
2022/12/20 06:41:47;;;;;;;;;;;1.70;85.90;;;-151.14;100.00;62537.16;5024826;28;19921;-79
2022/12/20 06:44:16;;;;;;;;;;;1.70;85.70;;;-151.14;100.00;62537.16;5033621;28;19921;-79
2022/12/20 06:46:45;;;;;;;;;;;1.80;85.70;;;0.32;100.00;62537.16;5016695;28;19928;-79
2022/12/20 06:49:21;;;;;;;;;;;1.80;85.60;;;-151.14;100.00;62537.16;5016994;28;19921;-79
2022/12/20 06:51:49;;;;;;;;;;;1.70;85.60;;;-151.14;100.00;62537.16;4999495;28;19921;-79
2022/12/20 06:54:26;;;;;;;;;;;1.80;85.50;;;-151.14;100.00;62537.16;5013764;28;19925;-79
2022/12/20 06:56:54;;;;;;;;;;;1.80;85.50;;;-151.14;100.00;62537.16;4997169;28;19921;-79
2022/12/20 06:59:27;;;;;;;;;;;1.80;85.70;;;-151.14;100.00;62537.16;5013916;28;19921;-79
2022/12/20 07:01:55;;;;;;;;;;;1.80;85.60;;;-151.14;100.00;62537.16;4997701;28;20112;-80
2022/12/20 07:04:22;;;;;;;;;;;1.80;85.50;;;-151.14;100.00;62537.16;5013952;28;19921;-79
2022/12/20 07:06:50;;;;;;;;;;;1.80;85.50;;;-151.14;100.00;62537.16;5024189;28;19951;-80
2022/12/20 07:09:44;;;;;;;;;;;1.80;85.50;;;-151.14;100.00;62537.16;5050031;28;19936;-80
2022/12/20 07:12:12;;;;;;;;;;;1.80;85.50;;;0.37;100.00;62537.16;5033436;28;19921;-80
2022/12/20 07:14:41;;;;;;;;;;;1.80;85.50;;;-151.14;100.00;62537.16;5033259;28;19920;-79
2022/12/20 07:17:09;;;;;;;;;;;1.80;85.40;;;-151.14;100.00;62537.16;5033339;28;19921;-80
2022/12/20 07:19:37;;;;;;;;;;;1.80;85.50;;;-151.14;100.00;62537.16;5049722;28;19921;-80
2022/12/20 07:22:05;;;;;;;;;;;1.80;85.40;;;-151.14;100.00;62537.16;5050993;28;19921;-80
2022/12/20 07:24:33;;;;;;;;;;;1.80;85.20;;;-151.14;100.00;62537.16;5016533;28;19921;-79
2022/12/20 07:27:05;;;;;;;;;;;1.90;85.50;;;-151.14;100.00;62537.16;5035768;28;20224;-80
2022/12/20 07:29:35;;;;;;;;;;;1.90;85.50;;;-151.14;100.00;62537.16;4997247;28;19921;-80
2022/12/20 07:32:04;;;;;;;;;;;1.90;85.40;;;-151.14;100.00;62537.16;5013474;28;19921;-79
2022/12/20 07:34:32;;;;;;;;;;;1.90;85.30;;;-151.14;100.00;62537.16;5013324;28;19921;-80
2022/12/20 07:37:00;;;;;;;;;;;1.90;85.30;;;-151.14;100.00;62537.16;5013270;28;19928;-80
2022/12/20 07:40:03;;;;;;;;;;;1.90;85.20;;;-151.14;100.00;62537.16;4997037;28;20213;-80
2022/12/20 07:42:31;;;;;;;;;;;2.00;85.00;;;-151.14;100.00;62537.16;5010571;28;19921;-80
2022/12/20 07:45:03;;;;;;;;;;;2.00;84.90;;;-151.14;100.00;62537.16;5032609;28;20127;-80
2022/12/20 07:53:17;;;;;;;;;;;2.00;84.30;;;-151.14;100.00;62537.16;5004013;28;19928;-80
2022/12/20 07:55:48;;;;;;;;;;;2.00;84.40;;;0.69;100.00;62537.16;4993223;28;19928;-80
2022/12/20 07:58:16;;;;;;;;;;;2.10;84.40;;;-151.14;100.00;62537.16;5009966;28;19922;-80
2022/12/20 08:00:44;;;;;;;;;;;2.10;84.50;;;0.73;100.00;62537.16;5011984;28;20209;-80
2022/12/20 08:03:14;;;;;;;;;;;2.10;84.40;;;-151.14;100.00;62537.16;5013186;28;20213;-80
2022/12/20 08:05:45;;;;;;;;;;;2.10;84.20;;;0.77;100.00;62537.16;5012776;28;19944;-80
2022/12/20 08:08:14;;;;;;;;;;;2.20;84.20;;;-151.14;100.00;62537.16;5013038;28;19921;-80
2022/12/20 08:10:42;;;;;;;;;;;2.20;84.00;;;-151.14;100.00;62537.16;5012784;28;20209;-80
2022/12/20 08:13:10;;;;;;;;;;;2.20;83.80;;;-151.14;100.00;62537.16;5014049;28;19928;-81
2022/12/20 08:15:38;;;;;;;;;;;2.20;83.90;;;-151.14;100.00;62537.16;4996333;28;19928;-80
2022/12/20 08:18:06;;;;;;;;;;;2.20;84.60;;;-151.14;100.00;62537.16;4996579;28;19922;-80
2022/12/20 08:21:11;;;;;;;;;;;2.20;83.70;;;-151.14;100.00;62537.16;5012922;28;19922;-80
2022/12/20 08:24:31;;;;;;;;;;;2.20;83.40;;;18.10;100.00;62537.16;4996330;28;19928;-80
2022/12/20 08:27:25;;;;;;;;;;;2.20;83.50;;;-151.14;100.00;62537.16;5002139;28;19922;-80
2022/12/20 08:29:53;;;;;;;;;;;2.20;83.20;;;0.84;100.00;81254.13;5031085;28;20204;-80
2022/12/20 08:32:21;;;;;;;;;;;2.20;83.30;;;0.81;100.00;62537.16;5019301;28;20212;-80
2022/12/20 08:34:49;;;;;;;;;;;2.20;83.20;;;-151.14;100.00;62537.16;5035133;28;19927;-80
2022/12/20 08:37:18;;;;;;;;;;;2.20;83.10;;;-151.14;100.00;62537.16;5052159;28;19921;-80
2022/12/20 08:39:46;;;;;;;;;;;2.20;83.20;;;-151.14;100.00;62537.16;5035793;28;19950;-80
2022/12/20 08:42:14;;;;;;;;;;;2.20;83.10;;;-151.14;100.00;62537.16;5053320;28;19927;-80
2022/12/20 08:44:42;;;;;;;;;;;2.20;83.20;;;-151.14;100.00;62537.16;5018615;28;19929;-80
2022/12/20 08:47:10;;;;;;;;;;;2.20;83.10;;;-151.14;100.00;62537.16;5035707;28;19927;-80
2022/12/20 08:49:38;;;;;;;;;;;2.10;83.30;;;-151.14;100.00;62537.16;5053212;28;20097;-80
2022/12/20 08:52:06;;;;;;;;;;;2.10;83.40;;;18.10;100.00;62537.16;5053338;28;19927;-81
2022/12/20 08:54:36;;;;;;;;;;;2.10;83.60;;;0.73;100.00;62537.16;5018766;28;19920;-80
2022/12/20 08:57:04;;;;;;;;;;;2.10;83.60;;;-151.14;100.00;62537.16;5018592;28;19927;-80
2022/12/20 08:59:32;;;;;;;;;;;2.10;83.60;;;-151.14;100.00;62537.16;5018838;28;19931;-80
2022/12/20 09:02:00;;;;;;;;;;;2.10;83.70;;;18.10;100.00;62537.16;5017131;28;19921;-80
2022/12/20 09:04:27;;;;;;;;;;;2.10;83.70;;;-151.14;100.00;62537.16;4999020;28;19925;-80
2022/12/20 09:06:55;;;;;;;;;;;2.10;83.80;;;-151.14;100.00;62537.16;4998753;28;19921;-80
2022/12/20 09:09:23;;;;;;;;;;;2.10;83.80;;;-151.14;100.00;62537.16;5015421;28;19921;-80
2022/12/20 09:11:53;;;;;;;;;;;2.10;83.90;;;-151.14;100.00;62537.16;5015345;28;19921;-80
2022/12/20 09:14:20;;;;;;;;;;;2.10;83.90;;;-151.14;100.00;62537.16;5015094;28;20124;-80
2022/12/20 09:16:49;;;;;;;;;;;2.10;83.90;;;-151.14;100.00;62537.16;5014842;28;19921;-80
2022/12/20 09:19:17;;;;;;;;;;;2.10;83.90;;;-151.14;100.00;62537.16;5015413;28;19921;-80
2022/12/20 09:21:44;;;;;;;;;;;2.10;83.90;;;-151.14;100.00;62537.16;5031542;28;19921;-80
2022/12/20 09:24:12;;;;;;;;;;;2.10;83.90;;;-151.14;100.00;62537.16;4998734;28;19928;-80
2022/12/20 09:26:40;;;;;;;;;;;2.10;83.80;;;-151.14;100.00;62537.16;5015053;28;19927;-81
2022/12/20 09:29:10;;;;;;;;;;;2.10;83.80;;;0.65;100.00;62537.16;4998919;28;19943;-81
2022/12/20 09:31:37;;;;;;;;;;;2.10;83.80;;;-151.14;100.00;62537.16;4998702;28;19921;-80
2022/12/20 09:34:05;;;;;;;;;;;2.10;83.90;;;0.63;100.00;62537.16;5032517;28;19921;-80
2022/12/20 09:36:33;;;;;;;;;;;2.10;83.90;;;0.64;100.00;62537.16;5014865;28;20227;-80
2022/12/20 09:39:01;;;;;;;;;;;2.10;83.90;;;-151.14;100.00;62537.16;5015143;28;19921;-80
2022/12/20 09:41:31;;;;;;;;;;;2.10;83.80;;;0.63;100.00;62537.16;4990904;28;20124;-80
2022/12/20 09:44:00;;;;;;;;;;;2.10;83.70;;;-151.14;100.00;62537.16;5014786;28;19928;-80
2022/12/20 09:46:30;;;;;;;;;;;2.10;83.70;;;-151.14;100.00;62537.16;5014385;28;19927;-80
2022/12/20 09:48:58;;;;;;;;;;;2.10;83.80;;;0.63;100.00;62537.16;5014901;28;19928;-80
2022/12/20 09:51:34;;;;;;;;;;;2.00;83.70;;;0.61;100.00;62537.16;5014976;28;20098;-80
2022/12/20 09:54:08;;;;;;;;;;;2.00;83.70;;;-151.14;100.00;62537.16;4998383;28;19921;-80
2022/12/20 09:56:37;;;;;;;;;;;2.10;83.70;;;-151.14;100.00;62537.16;5031841;28;19935;-80
2022/12/20 09:59:05;;;;;;;;;;;2.10;83.80;;;0.61;100.00;62537.16;5014619;28;19925;-80
2022/12/20 10:01:35;;;;;;;;;;;2.10;83.70;;;0.62;100.00;62537.16;5014525;28;19921;-80
2022/12/20 10:04:04;;;;;;;;;;;2.10;83.70;;;-151.14;100.00;62537.16;5014201;28;19921;-80
2022/12/20 10:06:42;;;;;;;;;;;2.10;83.80;;;0.60;100.00;62537.16;4997330;28;19921;-80
2022/12/20 10:09:13;;;;;;;;;;;2.00;83.60;;;-151.14;100.00;62537.16;4998387;28;19921;-80
2022/12/20 10:11:49;;;;;;;;;;;2.10;83.80;;;0.60;100.00;62537.16;5014625;28;19927;-80
2022/12/20 10:14:26;;;;;;;;;;;2.10;83.70;;;0.60;100.00;62537.16;4998043;28;19928;-80
2022/12/20 10:16:57;;;;;;;;;;;2.10;83.70;;;-151.14;100.00;62537.16;5014192;28;20208;-80
2022/12/20 10:19:36;;;;;;;;;;;2.10;83.70;;;-151.14;100.00;62537.16;5014422;28;19928;-80
2022/12/20 10:22:07;;;;;;;;;;;2.00;83.60;;;-151.14;100.00;62537.16;5013379;28;20112;-80
2022/12/20 10:24:35;;;;;;;;;;;2.00;83.60;;;-151.14;100.00;62537.16;5014119;28;20205;-80
2022/12/20 10:27:07;;;;;;;;;;;2.00;83.60;;;-151.14;100.00;62537.16;5014174;28;20209;-80
2022/12/20 10:29:35;;;;;;;;;;;2.00;83.60;;;18.10;100.00;62537.16;5007195;28;19928;-80
2022/12/20 10:32:12;;;;;;;;;;;2.00;83.40;;;-151.14;100.00;62537.16;5031503;28;20121;-80
2022/12/20 10:34:42;;;;;;;;;;;2.00;83.40;;;-151.14;100.00;62537.16;5031090;28;19921;-80
2022/12/20 10:37:14;;;;;;;;;;;2.00;83.60;;;0.55;100.00;62537.16;5013802;28;19921;-80
2022/12/20 10:39:43;;;;;;;;;;;2.00;83.50;;;0.55;100.00;62537.16;4998049;28;20116;-80
2022/12/20 10:42:25;;;;;;;;;;;2.00;83.50;;;-151.14;100.00;62537.16;5013999;28;19921;-80
2022/12/20 10:44:55;;;;;;;;;;;2.00;83.60;;;-151.14;100.00;62537.16;4997372;28;20455;-80
2022/12/20 10:47:34;;;;;;;;;;;2.00;83.60;;;-151.14;100.00;62537.16;5013963;28;19929;-80
2022/12/20 10:50:10;;;;;;;;;;;2.00;83.60;;;-151.14;100.00;62537.16;4997703;28;19921;-80
2022/12/20 10:52:38;;;;;;;;;;;2.00;83.50;;;-151.14;100.00;62537.16;5031512;28;19948;-80
2022/12/20 10:55:23;;;;;;;;;;;2.00;83.60;;;-151.14;100.00;62537.16;4997050;28;19921;-80
2022/12/20 10:57:51;;;;;;;;;;;2.00;83.50;;;0.52;100.00;81209.25;5018951;28;19943;-80
2022/12/20 11:00:28;;;;;;;;;;;2.00;83.50;;;-151.14;100.00;62537.16;5013929;28;19921;-80
2022/12/20 11:03:10;;;;;;;;;;;2.00;83.60;;;-151.14;100.00;62537.16;4997720;28;20449;-80
2022/12/20 11:05:38;;;;;;;;;;;2.00;83.60;;;-151.14;100.00;62537.16;4997075;28;19928;-80
2022/12/20 11:08:14;;;;;;;;;;;2.00;83.60;;;-151.14;100.00;62537.16;5013798;28;19921;-80
2022/12/20 11:10:42;;;;;;;;;;;2.00;83.70;;;18.08;100.00;62537.16;4997406;28;20223;-80
2022/12/20 11:13:20;;;;;;;;;;;1.90;83.70;;;-151.14;100.00;62537.16;4997388;28;19922;-80
2022/12/20 11:15:49;;;;;;;;;;;1.90;83.70;;;-151.14;100.00;62537.16;5013280;28;19921;-80
2022/12/20 11:18:20;;;;;;;;;;;1.90;83.70;;;-151.14;100.00;62537.16;5013603;28;19940;-80
2022/12/20 11:20:52;;;;;;;;;;;1.90;83.70;;;-151.14;100.00;62537.16;5013645;28;19921;-80
2022/12/20 11:23:25;;;;;;;;;;;1.90;83.60;;;0.49;100.00;62537.16;5013401;28;19921;-80
2022/12/20 11:26:03;;;;;;;;;;;2.00;83.60;;;-151.14;100.00;62537.16;5030747;28;19928;-80
2022/12/20 11:28:39;;;;;;;;;;;1.90;83.60;;;-151.14;100.00;62537.16;5013279;28;19927;-80
2022/12/20 11:31:11;;;;;;;;;;;2.00;83.70;;;-151.14;100.00;62537.16;4997223;28;19921;-80
2022/12/20 11:33:54;;;;;;;;;;;1.90;83.50;;;18.10;100.00;62537.16;5014025;28;19936;-80
2022/12/20 11:36:26;;;;;;;;;;;1.90;83.50;;;-151.14;100.00;62537.16;5016434;28;19976;-80
2022/12/20 11:39:00;;;;;;;;;;;1.90;83.50;;;-151.14;100.00;62537.16;5016983;28;19928;-80
2022/12/20 11:41:30;;;;;;;;;;;1.90;83.50;;;-151.14;100.00;62537.16;5016960;28;19921;-80
2022/12/20 11:44:05;;;;;;;;;;;1.90;83.60;;;0.42;100.00;62537.16;5016435;28;19943;-80
2022/12/20 11:46:40;;;;;;;;;;;1.90;83.60;;;-151.14;100.00;62537.16;4999924;28;19921;-80